Time;durP1;ratioP1;P1;durP2;ratioP2;P2;SDS_P1;SDS_P2;PMS_P1;PMS_P2;Temp;Humidity;BMP_temperature;BMP_pressure;BME280_temperature;BME280_humidity;BME280_pressure;Samples;Min_cycle;Max_cycle;Signal;HPM_P1;HPM_P2
2022/01/26 00:07:42;;;;;;;;;;;;;;;-1.18;100.00;101521.03;5561811;32;35806;-82
2022/01/26 00:10:45;;;;;;;;;;;;;;;-1.19;100.00;101510.69;5561065;32;34621;-82
2022/01/26 00:13:47;;;;;;;;;;;;;;;-1.11;100.00;101511.34;5560832;32;34239;-82
2022/01/26 00:16:53;;;;;;;;;;;;;;;-0.70;100.00;101519.03;5560749;32;34642;-82
2022/01/26 00:20:09;;;;;;;;;;;;;;;-0.75;100.00;101519.16;5560806;32;34213;-82
2022/01/26 00:26:33;;;;;;;;;;;;;;;-0.94;100.00;101510.97;5560589;32;35203;-82
2022/01/26 00:29:41;;;;;;;;;;;;;;;-1.06;100.00;101512.09;5560009;32;34820;-82
2022/01/26 00:33:07;;;;;;;;;;;;;;;-1.12;100.00;101507.06;5561315;32;35190;-82
2022/01/26 00:39:33;;;;;;;;;;;;;;;-1.23;100.00;101514.25;5561273;32;34224;-82
2022/01/26 00:42:39;;;;;;;;;;;;;;;-1.45;100.00;101518.16;5560325;32;34560;-82
2022/01/26 00:45:42;;;;;;;;;;;;;;;-1.56;100.00;101510.63;5560391;32;34590;-82
2022/01/26 00:48:49;;;;;;;;;;;;;;;-1.64;100.00;101509.09;5560646;32;34269;-82
2022/01/26 00:51:52;;;;;;;;;;;;;;;-1.50;100.00;101512.25;5560600;32;35546;-82
2022/01/26 00:54:58;;;;;;;;;;;;;;;-1.47;100.00;101519.09;5562718;32;34751;-82
2022/01/26 00:58:01;;;;;;;;;;;;;;;-1.31;100.00;101515.28;5560814;32;34033;-82
2022/01/26 01:01:04;;;;;;;;;;;;;;;-1.31;100.00;101517.00;5560604;32;35531;-82
2022/01/26 01:04:07;;;;;;;;;;;;;;;-1.48;100.00;101509.59;5560415;32;34543;-82
2022/01/26 01:07:16;;;;;;;;;;;;;;;-1.52;100.00;101518.37;5560241;32;34350;-82
2022/01/26 01:10:22;;;;;;;;;;;;;;;-1.37;100.00;101518.00;5560482;32;34565;-82
2022/01/26 01:13:36;;;;;;;;;;;;;;;-1.52;100.00;101513.16;5561158;32;34391;-82
2022/01/26 01:16:39;;;;;;;;;;;;;;;-1.58;100.00;101509.81;5560709;32;35157;-82
2022/01/26 01:20:00;;;;;;;;;;;;;;;-1.64;100.00;101509.09;5560610;32;34925;-82
2022/01/26 01:29:27;;;;;;;;;;;;;;;-1.73;100.00;101516.19;5560494;32;34098;-82
2022/01/26 01:32:40;;;;;;;;;;;;;;;-1.44;100.00;101521.63;5533886;32;870336;-82
2022/01/26 01:35:43;;;;;;;;;;;;;;;-1.51;100.00;101520.03;5561060;32;34250;-83
2022/01/26 01:38:46;;;;;;;;;;;;;;;-1.38;100.00;101521.47;5560265;32;35158;-83
2022/01/26 01:41:50;;;;;;;;;;;;;;;-1.61;100.00;101515.06;5560703;32;34498;-83
2022/01/26 01:44:53;;;;;;;;;;;;;;;-1.65;100.00;101508.25;5560634;32;34890;-82
2022/01/26 01:47:56;;;;;;;;;;;;;;;-1.78;100.00;101506.78;5559712;32;34647;-82
2022/01/26 01:51:06;;;;;;;;;;;;;;;-1.71;100.00;101503.16;5561097;32;34551;-82
2022/01/26 01:54:17;;;;;;;;;;;;;;;-1.81;100.00;101512.91;5560398;32;34446;-82
2022/01/26 01:57:24;;;;;;;;;;;;;;;-1.78;100.00;101501.59;5559885;32;35218;-82
2022/01/26 02:00:27;;;;;;;;;;;;;;;-1.71;100.00;101509.22;5560071;32;34333;-82
2022/01/26 02:03:29;;;;;;;;;;;;;;;-1.81;100.00;101512.03;5560229;32;35357;-82
2022/01/26 02:06:32;;;;;;;;;;;;;;;-1.91;100.00;101507.03;5559993;32;34342;-82
2022/01/26 02:09:34;;;;;;;;;;;;;;;-1.97;100.00;101501.97;5558861;32;35137;-82
2022/01/26 02:12:45;;;;;;;;;;;;;;;-2.00;100.00;101502.03;5559418;32;34454;-82
2022/01/26 02:15:56;;;;;;;;;;;;;;;-2.06;100.00;101503.03;5559063;32;34774;-82
2022/01/26 03:03:10;;;;;;;;;;;;;;;-2.10;100.00;101485.81;5561569;32;35441;-83
2022/01/26 03:06:22;;;;;;;;;;;;;;;-2.38;100.00;101495.84;5561675;32;34145;-83
2022/01/26 03:09:30;;;;;;;;;;;;;;;-2.58;100.00;101494.50;5561538;32;34727;-83
2022/01/26 03:12:44;;;;;;;;;;;;;;;-2.65;100.00;101487.72;5561389;32;34081;-83
2022/01/26 03:15:52;;;;;;;;;;;;;;;-2.59;100.00;101491.94;5561611;32;35450;-83
2022/01/26 03:28:39;;;;;;;;;;;;;;;-2.41;100.00;101477.75;5563756;32;34655;-82
2022/01/26 03:34:56;;;;;;;;;;;;;;;-2.41;100.00;101477.75;5562079;32;34174;-83
2022/01/26 03:37:59;;;;;;;;;;;;;;;-2.53;100.00;101477.09;5562253;32;35248;-83
2022/01/26 03:44:29;;;;;;;;;;;;;;;-2.53;100.00;101481.44;5561372;32;35447;-83
2022/01/26 03:47:37;;;;;;;;;;;;;;;-2.56;100.00;101481.50;5560556;32;35000;-83
2022/01/26 03:50:39;;;;;;;;;;;;;;;-2.66;100.00;101478.25;5561462;32;35261;-83
2022/01/26 03:53:42;;;;;;;;;;;;;;;-2.69;100.00;101478.28;5560792;32;34347;-83
2022/01/26 03:56:45;;;;;;;;;;;;;;;-2.64;100.00;101486.81;5563672;32;36841;-83
2022/01/26 03:59:51;;;;;;;;;;;;;;;-2.63;100.00;101491.13;5561370;32;34392;-83
2022/01/26 04:02:55;;;;;;;;;;;;;;;-2.64;100.00;101490.28;5559899;32;35162;-83
2022/01/26 04:05:57;;;;;;;;;;;;;;;-2.47;100.00;101480.47;5561595;32;34456;-83
2022/01/26 04:09:00;;;;;;;;;;;;;;;-2.46;100.00;101488.22;5561459;32;34793;-83
2022/01/26 04:12:03;;;;;;;;;;;;;;;-2.55;100.00;101494.44;5560237;32;35309;-83
2022/01/26 04:15:16;;;;;;;;;;;;;;;-2.70;100.00;101485.19;5560311;32;34511;-83
2022/01/26 04:18:25;;;;;;;;;;;;;;;-2.77;100.00;101487.94;5559856;32;34941;-83
2022/01/26 04:21:49;;;;;;;;;;;;;;;-2.77;100.00;101482.75;5561925;32;34462;-83
2022/01/26 04:24:54;;;;;;;;;;;;;;;-2.96;100.00;101491.69;5562585;32;35223;-83
2022/01/26 04:28:01;;;;;;;;;;;;;;;-3.01;100.00;101484.87;5560861;32;34401;-83
2022/01/26 04:31:04;;;;;;;;;;;;;;;-3.02;100.00;101483.16;5560158;32;34394;-83
2022/01/26 04:34:07;;;;;;;;;;;;;;;-3.13;100.00;101485.91;5561334;32;35589;-83
2022/01/26 04:40:16;;;;;;;;;;;;;;;-2.97;100.00;101464.06;5559832;32;35482;-82
2022/01/26 04:43:24;;;;;;;;;;;;;;;-2.82;100.00;101481.09;5560314;32;34586;-82
2022/01/26 04:46:27;;;;;;;;;;;;;;;-2.87;100.00;101480.28;5560280;32;34819;-82
2022/01/26 04:49:33;;;;;;;;;;;;;;;-3.03;100.00;101471.09;5561910;32;34924;-83
2022/01/26 04:52:36;;;;;;;;;;;;;;;-2.99;100.00;101472.75;5559859;32;34574;-82
2022/01/26 04:55:39;;;;;;;;;;;;;;;-3.02;100.00;101472.81;5560921;32;34312;-82
2022/01/26 04:58:41;;;;;;;;;;;;;;;-3.15;100.00;101478.19;5561396;32;35034;-82
2022/01/26 05:01:44;;;;;;;;;;;;;;;-3.19;100.00;101471.31;5561302;32;34039;-82
2022/01/26 05:04:46;;;;;;;;;;;;;;;-3.33;100.00;101468.13;5561069;32;35034;-82
2022/01/26 05:07:49;;;;;;;;;;;;;;;-3.51;100.00;101469.25;5561706;32;35460;-82
2022/01/26 05:10:51;;;;;;;;;;;;;;;-3.56;100.00;101464.13;5561523;32;35366;-82
2022/01/26 05:13:55;;;;;;;;;;;;;;;-3.68;100.00;101466.91;5562099;32;34327;-82
2022/01/26 05:17:00;;;;;;;;;;;;;;;-3.48;100.00;101462.28;5562160;32;34531;-82
2022/01/26 05:20:04;;;;;;;;;;;;;;;-3.32;100.00;101469.84;5561399;32;34718;-82
2022/01/26 05:23:09;;;;;;;;;;;;;;;-3.51;100.00;101464.91;5560970;32;34699;-83
2022/01/26 05:26:12;;;;;;;;;;;;;;;-3.57;100.00;101465.84;5561448;32;34351;-83
2022/01/26 05:29:15;;;;;;;;;;;;;;;-3.30;100.00;101463.75;5560908;32;34895;-83
2022/01/26 05:32:19;;;;;;;;;;;;;;;-3.27;100.00;101461.13;5560766;32;34657;-83
2022/01/26 05:35:22;;;;;;;;;;;;;;;-3.32;100.00;101467.25;5560116;32;34556;-83
2022/01/26 05:38:24;;;;;;;;;;;;;;;-3.31;100.00;101466.34;5560450;32;34541;-83
2022/01/26 05:41:27;;;;;;;;;;;;;;;-3.47;100.00;101470.87;5561318;32;34698;-83
2022/01/26 05:44:36;;;;;;;;;;;;;;;-3.39;100.00;101473.38;5557783;32;34896;-83
2022/01/26 05:47:42;;;;;;;;;;;;;;;-3.14;100.00;101474.72;5560116;32;34733;-83
2022/01/26 05:50:53;;;;;;;;;;;;;;;-3.08;100.00;101472.88;5560053;32;34719;-83
2022/01/26 05:53:58;;;;;;;;;;;;;;;-3.22;100.00;101481.75;5559469;32;35000;-83
2022/01/26 05:57:01;;;;;;;;;;;;;;;-3.28;100.00;101480.09;5560152;32;33872;-83
2022/01/26 06:00:05;;;;;;;;;;;;;;;-3.45;100.00;101490.72;5559859;32;34343;-82
2022/01/26 06:03:16;;;;;;;;;;;;;;;-3.60;100.00;101481.41;5559523;32;34496;-82
2022/01/26 06:06:21;;;;;;;;;;;;;;;-3.65;100.00;101482.34;5563088;32;34282;-82
2022/01/26 06:09:24;;;;;;;;;;;;;;;-3.72;100.00;101482.44;5564252;32;35547;-83
2022/01/26 06:12:28;;;;;;;;;;;;;;;-3.75;100.00;101477.31;5560208;32;35543;-84
2022/01/26 06:15:30;;;;;;;;;;;;;;;-3.78;100.00;101477.37;5559755;32;35255;-83
2022/01/26 06:18:35;;;;;;;;;;;;;;;-3.80;100.00;101484.28;5557681;32;35370;-84
2022/01/26 06:21:38;;;;;;;;;;;;;;;-3.68;100.00;101487.59;5559219;32;33323;-84
2022/01/26 06:24:41;;;;;;;;;;;;;;;-3.51;100.00;101485.59;5559897;32;35077;-84
2022/01/26 06:27:44;;;;;;;;;;;;;;;-3.34;100.00;101476.75;5558343;32;34570;-84
2022/01/26 06:30:49;;;;;;;;;;;;;;;-3.16;100.00;101481.63;5558213;32;33967;-83
2022/01/26 06:33:53;;;;;;;;;;;;;;;-2.81;100.00;101477.63;5558425;32;34675;-83
2022/01/26 06:36:58;;;;;;;;;;;;;;;-2.63;100.00;101480.75;5561387;32;35176;-83
2022/01/26 06:40:00;;;;;;;;;;;;;;;-2.43;100.00;101482.16;5560132;32;34618;-84
2022/01/26 06:43:10;;;;;;;;;;;;;;;-2.07;100.00;101484.87;5559224;32;35031;-83
2022/01/26 06:46:22;;;;;;;;;;;;;;;-2.01;100.00;101489.97;5559613;32;34626;-83
2022/01/26 06:52:27;;;;;;;;;;;;;;;-1.93;100.00;101487.22;5563827;32;34630;-84
2022/01/26 06:55:33;;;;;;;;;;;;;;;-1.89;100.00;101489.72;5561291;32;34585;-84
2022/01/26 06:58:38;;;;;;;;;;;;;;;-1.76;100.00;101484.25;5561360;32;34053;-84
2022/01/26 07:01:41;;;;;;;;;;;;;;;-1.60;100.00;101488.22;5563211;32;33917;-84
2022/01/26 07:04:46;;;;;;;;;;;;;;;-1.47;100.00;101495.72;5561652;32;34574;-84
2022/01/26 07:07:49;;;;;;;;;;;;;;;-1.37;100.00;101481.66;5561977;32;35538;-84
2022/01/26 07:10:53;;;;;;;;;;;;;;;-1.42;100.00;101491.31;5561212;32;35013;-83
2022/01/26 07:14:08;;;;;;;;;;;;;;;;;;;;;
2022/01/26 07:23:50;;;;;;;;;;;;;;;-0.64;100.00;101472.09;5559009;32;35259;-84
2022/01/26 07:26:54;;;;;;;;;;;;;;;-0.40;100.00;101475.78;5561044;32;34376;-84
2022/01/26 07:29:58;;;;;;;;;;;;;;;-0.27;100.00;101465.88;5557130;32;35187;-84
2022/01/26 07:33:05;;;;;;;;;;;;;;;0.06;100.00;101471.03;5561215;32;34929;-84
2022/01/26 07:36:08;;;;;;;;;;;;;;;0.24;100.00;101472.22;5562322;32;34448;-84
2022/01/26 07:39:16;;;;;;;;;;;;;;;0.33;100.00;101475.44;5552777;32;34959;-84
2022/01/26 07:42:19;;;;;;;;;;;;;;;0.48;100.00;101477.59;5541272;32;34636;-84
2022/01/26 07:45:21;;;;;;;;;;;;;;;0.80;100.00;101477.47;5542337;32;35481;-85
2022/01/26 07:48:24;;;;;;;;;;;;;;;0.95;100.00;101473.53;5544004;32;34484;-84
2022/01/26 07:51:30;;;;;;;;;;;;;;;0.95;100.00;101476.12;5543452;32;34913;-84
2022/01/26 07:54:34;;;;;;;;;;;;;;;1.12;100.00;101476.41;5542977;32;35819;-84
2022/01/26 07:57:37;;;;;;;;;;;;;;;1.20;100.00;101479.59;5542372;32;36180;-84
2022/01/26 08:00:40;;;;;;;;;;;;;;;1.29;100.00;101478.47;5544624;32;34924;-84
2022/01/26 08:03:43;;;;;;;;;;;;;;;1.29;100.00;101478.47;5543816;32;34190;-84
2022/01/26 08:06:45;;;;;;;;;;;;;;;1.45;100.00;101484.00;5543338;32;35550;-83
2022/01/26 08:09:48;;;;;;;;;;;;;;;1.67;100.00;101478.03;5542810;32;35020;-84
2022/01/26 08:12:50;;;;;;;;;;;;;;;1.58;100.00;101488.78;5543107;32;34954;-84
2022/01/26 08:15:58;;;;;;;;;;;;;;;1.70;100.00;101490.97;5542636;32;34637;-84
2022/01/26 08:19:01;;;;;;;;;;;;;;;1.82;100.00;101477.47;5542867;32;34318;-84
2022/01/26 08:22:04;;;;;;;;;;;;;;;1.74;100.00;101479.53;5542010;32;34547;-84
2022/01/26 08:25:07;;;;;;;;;;;;;;;2.02;100.00;101467.22;5543491;32;34664;-84
2022/01/26 08:28:18;;;;;;;;;;;;;;;1.76;100.00;101477.69;5543157;32;34291;-85
2022/01/26 08:31:21;;;;;;;;;;;;;;;1.74;100.00;101484.75;5543400;32;35120;-84
2022/01/26 08:34:24;;;;;;;;;;;;;;;1.60;100.00;101481.75;5543198;32;34685;-83
2022/01/26 08:37:26;;;;;;;;;;;;;;;1.94;100.00;101475.31;5542314;32;35092;-84
2022/01/26 08:40:30;;;;;;;;;;;;;;;2.11;100.00;101477.31;5542062;32;34966;-84
2022/01/26 08:43:33;;;;;;;;;;;;;;;1.94;100.00;101475.31;5543074;32;34489;-83
2022/01/26 08:46:36;;;;;;;;;;;;;;;2.08;100.00;101478.28;5542487;32;34762;-83
2022/01/26 08:49:41;;;;;;;;;;;;;;;2.05;100.00;101478.38;5542065;32;34727;-83
2022/01/26 08:52:44;;;;;;;;;;;;;;;2.07;100.00;101471.34;5541878;32;34923;-84
2022/01/26 08:55:47;;;;;;;;;;;;;;;2.05;100.00;101478.38;5542711;32;34688;-83
2022/01/26 08:58:54;;;;;;;;;;;;;;;2.08;100.00;101480.91;5548409;32;34239;-84
2022/01/26 09:01:57;;;;;;;;;;;;;;;2.27;100.00;101486.25;5561870;32;34734;-84
2022/01/26 09:05:00;;;;;;;;;;;;;;;2.36;100.00;101482.44;5560670;32;34580;-84
2022/01/26 09:08:03;;;;;;;;;;;;;;;2.43;99.02;101494.34;5561628;32;34674;-84
2022/01/26 09:11:07;;;;;;;;;;;;;;;2.42;100.00;101491.78;5561329;32;34584;-84
2022/01/26 09:14:17;;;;;;;;;;;;;;;2.63;98.52;101484.91;5561790;32;34926;-84
2022/01/26 09:17:24;;;;;;;;;;;;;;;2.83;97.06;101478.84;5563362;32;34784;-84
2022/01/26 09:20:26;;;;;;;;;;;;;;;2.55;97.62;101481.72;5560432;32;34684;-84
2022/01/26 09:23:31;;;;;;;;;;;;;;;2.84;97.24;101479.72;5562408;32;35252;-84
2022/01/26 09:26:34;;;;;;;;;;;;;;;2.78;96.62;101484.25;5561841;32;34178;-84
2022/01/26 09:29:37;;;;;;;;;;;;;;;2.71;97.21;101477.59;5561141;32;34699;-84
2022/01/26 09:32:39;;;;;;;;;;;;;;;2.87;96.37;101472.59;5560703;32;34361;-84
2022/01/26 09:35:44;;;;;;;;;;;;;;;2.93;95.88;101480.16;5561344;32;34127;-84
2022/01/26 09:38:49;;;;;;;;;;;;;;;2.93;95.58;101477.56;5561658;32;35034;-84
2022/01/26 09:41:52;;;;;;;;;;;;;;;3.07;95.48;101479.62;5549867;32;34669;-84
2022/01/26 09:44:54;;;;;;;;;;;;;;;3.12;94.28;101476.81;5541444;32;34330;-84
2022/01/26 09:47:57;;;;;;;;;;;;;;;3.07;94.71;101470.91;5541565;32;35241;-84
2022/01/26 09:51:20;;;;;;;;;;;;;;;3.12;93.84;101478.56;5542037;32;34323;-84
2022/01/26 09:54:24;;;;;;;;;;;;;;;3.16;93.81;101477.53;5543077;32;34028;-85
2022/01/26 09:57:49;;;;;;;;;;;;;;;2.93;94.96;101477.56;5541122;32;35238;-86
2022/01/26 10:00:58;;;;;;;;;;;;;;;3.00;94.08;101482.56;5542814;32;33333;-84
2022/01/26 10:04:04;;;;;;;;;;;;;;;2.92;94.70;101469.78;5542238;32;34070;-84
2022/01/26 10:07:16;;;;;;;;;;;;;;;3.15;93.49;101471.47;5544621;32;34767;-85
2022/01/26 10:15:25;;;;;;;;;;;;;;;3.21;93.60;101476.41;5547605;32;34489;-84
2022/01/26 10:17:26;;;;;;;;;;;;;;;3.13;93.20;101465.44;5550548;32;34504;-85
2022/01/26 10:20:25;;;;;;;;;;;;;;;3.11;93.11;101458.56;5549702;32;35578;-85
2022/01/26 10:23:34;;;;;;;;;;;;;;;2.91;94.50;101455.00;5549944;32;35396;-86
2022/01/26 10:26:37;;;;;;;;;;;;;;;3.00;94.45;101462.47;5549392;32;35484;-85
2022/01/26 10:29:45;;;;;;;;;;;;;;;3.13;93.73;101454.97;5549839;32;36986;-85
2022/01/26 10:32:47;;;;;;;;;;;;;;;3.11;93.31;101438.50;5549319;32;34135;-84
2022/01/26 10:36:00;;;;;;;;;;;;;;;3.13;93.47;101447.13;5549742;32;34609;-85
2022/01/26 10:39:14;;;;;;;;;;;;;;;2.96;94.51;101440.00;5549054;32;34683;-84
2022/01/26 10:42:20;;;;;;;;;;;;;;;2.78;94.70;101439.84;5547765;32;34334;-84
2022/01/26 10:49:14;;;;;;;;;;;;;;;2.90;94.83;101429.78;5555244;32;34697;-85
2022/01/26 10:55:24;;;;;;;;;;;;;;;2.77;94.82;101419.84;5562573;32;34532;-85
2022/01/26 10:58:26;;;;;;;;;;;;;;;2.78;95.03;101420.69;5566491;32;35689;-85
2022/01/26 11:01:29;;;;;;;;;;;;;;;2.90;94.23;101414.97;5566954;32;34618;-85
2022/01/26 11:04:34;;;;;;;;;;;;;;;3.14;92.84;101408.75;5567435;32;35416;-85
2022/01/26 11:07:40;;;;;;;;;;;;;;;3.00;92.65;101404.94;5568235;32;34264;-85
2022/01/26 11:10:47;;;;;;;;;;;;;;;3.16;92.49;101409.53;5568758;32;35276;-85
2022/01/26 11:13:50;;;;;;;;;;;;;;;3.26;91.72;101404.78;5570003;32;34195;-85
2022/01/26 11:17:26;;;;;;;;;;;;;;;3.34;91.17;101394.81;5569163;32;35868;-85
2022/01/26 11:20:34;;;;;;;;;;;;;;;3.48;90.53;101405.53;5568405;32;35385;-85
2022/01/26 11:23:40;;;;;;;;;;;;;;;3.44;90.64;101408.31;5565086;32;34715;-85
2022/01/26 11:26:45;;;;;;;;;;;;;;;3.17;91.85;101416.47;5564777;32;35311;-85
2022/01/26 11:29:52;;;;;;;;;;;;;;;3.04;92.26;101414.38;5562044;32;34764;-85
2022/01/26 11:32:57;;;;;;;;;;;;;;;2.89;92.55;101402.81;5544736;32;35157;-85
2022/01/26 11:36:00;;;;;;;;;;;;;;;2.78;93.47;101405.84;5543796;32;34386;-85
2022/01/26 11:42:15;;;;;;;;;;;;;;;2.78;93.21;101403.25;5544802;32;35410;-85
2022/01/26 11:46:06;;;;;;;;;;;;;;;2.91;92.82;101400.13;5552120;32;34396;-85
2022/01/26 11:49:13;;;;;;;;;;;;;;;3.15;91.28;101398.25;5564629;32;33949;-85
2022/01/26 11:52:19;;;;;;;;;;;;;;;3.48;89.88;101404.66;5563895;32;35603;-85
2022/01/26 11:55:36;;;;;;;;;;;;;;;3.74;88.34;101394.78;5564974;32;35653;-85
2022/01/26 11:58:41;;;;;;;;;;;;;;;3.85;87.37;101397.78;5564322;32;34165;-85
2022/01/26 12:01:55;;;;;;;;;;;;;;;4.39;85.32;101402.22;5564259;32;35626;-85
2022/01/26 12:05:04;;;;;;;;;;;;;;;4.36;85.18;101398.00;5565580;32;35235;-87
2022/01/26 12:08:07;;;;;;;;;;;;;;;4.78;82.38;101388.09;5564695;32;34630;-85
2022/01/26 12:11:14;;;;;;;;;;;;;;;4.44;84.15;101379.28;5564542;32;35027;-85
2022/01/26 12:14:21;;;;;;;;;;;;;;;4.28;84.23;101382.66;5561426;32;35050;-84
2022/01/26 12:17:31;;;;;;;;;;;;;;;4.09;85.07;101368.75;5545880;32;34637;-85
2022/01/26 12:44:32;;;;;;;;;;;;;;;4.17;84.43;101341.25;5525652;32;35637;-85
2022/01/26 12:47:34;;;;;;;;;;;;;;;4.04;85.09;101345.41;5563150;32;35820;-86
2022/01/26 12:50:44;;;;;;;;;;;;;;;4.14;83.96;101345.78;5566048;32;35522;-85
2022/01/26 12:53:55;;;;;;;;;;;;;;;4.35;83.40;101340.41;5564448;32;35735;-85
2022/01/26 12:57:06;;;;;;;;;;;;;;;4.47;82.65;101330.19;5552907;32;34427;-85
2022/01/26 13:00:09;;;;;;;;;;;;;;;4.54;82.57;101338.59;5552589;32;33742;-85
2022/01/26 13:03:14;;;;;;;;;;;;;;;4.34;82.73;101342.19;5564028;32;34331;-84
2022/01/26 13:06:22;;;;;;;;;;;;;;;4.32;83.15;101337.06;5563980;32;34627;-85
2022/01/26 13:09:26;;;;;;;;;;;;;;;4.14;83.55;101340.53;5563506;32;35618;-84
2022/01/26 13:12:30;;;;;;;;;;;;;;;4.19;84.07;101343.81;5551231;32;34233;-85
2022/01/26 13:15:41;;;;;;;;;;;;;;;4.28;82.99;101343.34;5546467;32;34814;-84
2022/01/26 13:26:01;;;;;;;;;;;;;;;3.95;84.47;101341.44;5533672;32;34891;-84
2022/01/26 13:29:40;;;;;;;;;;;;;;;3.80;85.83;101336.91;5543280;32;35277;-84
2022/01/26 13:43:16;;;;;;;;;;;;;;;3.09;89.27;101326.16;5543227;32;34729;-84
2022/01/26 13:49:45;;;;;;;;;;;;;;;3.21;88.19;101329.97;5544122;32;35074;-84
2022/01/26 13:53:05;;;;;;;;;;;;;;;3.26;88.00;101332.37;5542640;32;34166;-84
2022/01/26 13:56:15;;;;;;;;;;;;;;;3.30;87.99;101331.34;5553729;32;34562;-84
2022/01/26 13:59:28;;;;;;;;;;;;;;;3.33;87.75;101336.41;5563821;32;34647;-84
2022/01/26 14:02:33;;;;;;;;;;;;;;;3.31;87.48;101340.00;5564343;32;35645;-85
2022/01/26 14:05:36;;;;;;;;;;;;;;;3.29;87.46;101329.63;5563588;32;35631;-85
2022/01/26 14:08:38;;;;;;;;;;;;;;;3.39;87.14;101333.53;5564206;32;35562;-84
2022/01/26 14:11:47;;;;;;;;;;;;;;;3.42;86.71;101336.94;5564808;32;34557;-84
2022/01/26 14:14:54;;;;;;;;;;;;;;;3.26;87.41;101337.59;5563973;32;36129;-84
2022/01/26 14:25:03;;;;;;;;;;;;;;;3.18;87.83;101334.50;5542920;32;34375;-84
2022/01/26 14:28:10;;;;;;;;;;;;;;;3.11;87.99;101331.28;5544201;32;34748;-84
2022/01/26 14:54:30;;;;;;;;;;;;;;;2.68;90.01;101344.44;5543710;32;35584;-84
2022/01/26 15:45:02;;;;;;;;;;;;;;;1.58;97.54;101361.81;5498705;32;34904;-83
2022/01/26 15:57:58;;;;;;;;;;;;;;;1.38;99.57;101357.34;5515849;32;35389;-85
2022/01/26 16:08:06;;;;;;;;;;;;;;;1.17;100.00;101358.97;5518480;32;34852;-84
2022/01/26 16:38:04;;;;;;;;;;;;;;;1.11;100.00;101370.44;5542958;32;35036;-84
2022/01/26 17:26:46;;;;;;;;;;;;;;;0.91;100.00;101385.03;5523602;32;34257;-83
2022/01/26 18:16:23;;;;;;;;;;;;;;;0.74;100.00;101401.22;5544157;32;34929;-84
2022/01/26 18:32:57;;;;;;;;;;;;;;;0.60;100.00;101383.47;5543411;32;34658;-83
2022/01/26 18:49:45;;;;;;;;;;;;;;;0.28;100.00;101354.09;5562301;32;34577;-84
2022/01/26 18:52:49;;;;;;;;;;;;;;;0.25;100.00;101354.22;5561771;32;34720;-84
2022/01/26 18:55:51;;;;;;;;;;;;;;;0.17;100.00;101345.78;5563135;32;35958;-84
2022/01/26 18:58:54;;;;;;;;;;;;;;;0.11;100.00;101340.78;5562928;32;34370;-84
2022/01/26 19:02:04;;;;;;;;;;;;;;;0.02;100.00;101349.72;5563112;32;34473;-84
2022/01/26 19:05:31;;;;;;;;;;;;;;;-0.05;100.00;101349.03;5562484;32;34180;-83
2022/01/26 19:08:35;;;;;;;;;;;;;;;-0.16;100.00;101343.31;5563206;32;34392;-84
2022/01/26 19:11:39;;;;;;;;;;;;;;;-0.14;100.00;101344.12;5561599;32;35103;-84
2022/01/26 19:14:47;;;;;;;;;;;;;;;-0.13;100.00;101348.44;5561357;32;36852;-84
2022/01/26 19:17:57;;;;;;;;;;;;;;;-0.05;100.00;101341.25;5561429;32;35493;-83
2022/01/26 19:21:12;;;;;;;;;;;;;;;-0.02;100.00;101346.34;5561681;32;34740;-83
2022/01/26 19:27:51;;;;;;;;;;;;;;;-0.02;100.00;101355.94;5561522;32;34695;-83
2022/01/26 19:50:53;;;;;;;;;;;;;;;-0.29;100.00;101373.22;5562945;32;34434;-83
2022/01/26 19:53:55;;;;;;;;;;;;;;;-0.34;100.00;101369.00;5562264;32;34224;-83
2022/01/26 19:57:05;;;;;;;;;;;;;;;-0.32;100.00;101372.41;5560889;32;34407;-83
2022/01/26 20:00:08;;;;;;;;;;;;;;;-0.28;100.00;101370.56;5561269;32;35409;-84
2022/01/26 20:03:13;;;;;;;;;;;;;;;-0.24;100.00;101371.31;5560485;32;34563;-83
2022/01/26 20:06:24;;;;;;;;;;;;;;;-0.29;100.00;101376.66;5561391;32;34636;-84
2022/01/26 20:09:32;;;;;;;;;;;;;;;-0.40;100.00;101366.56;5560814;32;34117;-84
2022/01/26 20:12:48;;;;;;;;;;;;;;;-0.52;100.00;101366.94;5561493;32;35202;-85
2022/01/26 20:15:52;;;;;;;;;;;;;;;-0.51;100.00;101371.22;5562739;32;34575;-83
2022/01/26 20:18:57;;;;;;;;;;;;;;;-0.44;100.00;101364.94;5562211;32;35213;-83
2022/01/26 20:22:02;;;;;;;;;;;;;;;-0.43;100.00;101361.47;5561659;32;34710;-83
2022/01/26 20:25:05;;;;;;;;;;;;;;;-0.35;100.00;101380.28;5562424;32;34704;-84
2022/01/26 20:28:10;;;;;;;;;;;;;;;-0.36;100.00;101373.38;5547663;32;34314;-84
2022/01/26 20:31:19;;;;;;;;;;;;;;;-0.35;100.00;101359.47;5542580;32;34487;-84
2022/01/26 20:34:22;;;;;;;;;;;;;;;-0.40;100.00;101361.38;5541832;32;34607;-84
2022/01/26 20:37:25;;;;;;;;;;;;;;;-0.46;100.00;101364.12;5542770;32;35317;-84
2022/01/26 20:40:27;;;;;;;;;;;;;;;-0.40;100.00;101363.97;5542555;32;37058;-84
2022/01/26 20:43:33;;;;;;;;;;;;;;;-0.42;100.00;101368.38;5542286;32;34489;-84
2022/01/26 20:46:35;;;;;;;;;;;;;;;-0.36;100.00;101378.56;5543217;32;34970;-83
2022/01/26 20:49:38;;;;;;;;;;;;;;;-0.46;100.00;101379.75;5543091;32;35382;-83
2022/01/26 20:52:51;;;;;;;;;;;;;;;-0.52;100.00;101387.72;5545215;32;35420;-84
2022/01/26 20:55:57;;;;;;;;;;;;;;;-0.50;100.00;101380.72;5542853;32;35396;-84
2022/01/26 20:59:00;;;;;;;;;;;;;;;-0.39;100.00;101378.66;5542469;32;34551;-84
2022/01/26 21:02:11;;;;;;;;;;;;;;;-0.47;100.00;101380.62;5542151;32;34462;-84
2022/01/26 21:05:15;;;;;;;;;;;;;;;-0.54;100.00;101384.31;5541820;32;34785;-84
2022/01/26 21:08:21;;;;;;;;;;;;;;;-0.63;100.00;101378.47;5541259;32;34401;-83
2022/01/26 21:11:24;;;;;;;;;;;;;;;-0.65;100.00;101374.19;5543433;32;34881;-84
2022/01/26 21:14:33;;;;;;;;;;;;;;;-0.48;100.00;101379.78;5541769;32;34576;-83
2022/01/26 21:17:38;;;;;;;;;;;;;;;-0.56;100.00;101386.09;5541748;32;34581;-83
2022/01/26 21:20:41;;;;;;;;;;;;;;;-0.54;100.00;101369.56;5541534;32;34492;-84
2022/01/26 21:23:44;;;;;;;;;;;;;;;-0.55;100.00;101374.81;5543339;32;34930;-84
2022/01/26 21:26:47;;;;;;;;;;;;;;;-0.60;100.00;101368.87;5542083;32;34513;-84
2022/01/26 21:29:49;;;;;;;;;;;;;;;-0.67;100.00;101363.84;5541856;32;35056;-84
2022/01/26 21:32:51;;;;;;;;;;;;;;;-0.59;100.00;101360.19;5555019;32;34997;-84
2022/01/26 21:35:57;;;;;;;;;;;;;;;-0.45;100.00;101358.03;5560987;32;34475;-83
2022/01/26 21:39:00;;;;;;;;;;;;;;;-0.53;100.00;101350.47;5560682;32;34746;-84
2022/01/26 21:42:03;;;;;;;;;;;;;;;-0.55;100.00;101349.66;5561287;32;34457;-84
2022/01/26 21:45:07;;;;;;;;;;;;;;;-0.55;100.00;101341.84;5561184;32;36349;-84
2022/01/26 21:48:09;;;;;;;;;;;;;;;-0.57;100.00;101338.47;5560628;32;34529;-84
2022/01/26 21:51:12;;;;;;;;;;;;;;;-0.59;100.00;101344.59;5561207;32;35214;-84
2022/01/26 21:54:15;;;;;;;;;;;;;;;-0.53;100.00;101345.25;5560499;32;34301;-83
2022/01/26 21:57:17;;;;;;;;;;;;;;;-0.51;100.00;101363.44;5559968;32;35151;-83
2022/01/26 22:00:20;;;;;;;;;;;;;;;-0.54;100.00;101347.91;5560106;32;35572;-83
2022/01/26 22:03:23;;;;;;;;;;;;;;;-0.46;100.00;101348.53;5560720;32;36404;-84
2022/01/26 22:06:25;;;;;;;;;;;;;;;-0.61;100.00;101336.84;5559827;32;34618;-84
2022/01/26 22:09:28;;;;;;;;;;;;;;;-0.54;100.00;101342.72;5560274;32;34524;-83
2022/01/26 22:12:31;;;;;;;;;;;;;;;-0.59;100.00;101334.19;5560096;32;35448;-83
2022/01/26 22:15:35;;;;;;;;;;;;;;;-0.74;100.00;101336.34;5560699;32;34413;-83
2022/01/26 22:18:37;;;;;;;;;;;;;;;-0.71;100.00;101343.19;5561437;32;34747;-83
2022/01/26 22:21:41;;;;;;;;;;;;;;;-0.58;100.00;101341.09;5559964;32;36777;-83
2022/01/26 22:24:43;;;;;;;;;;;;;;;-0.68;100.00;101340.53;5559772;32;35467;-83
2022/01/26 22:27:49;;;;;;;;;;;;;;;-0.81;100.00;101329.59;5561027;32;34343;-83
2022/01/26 22:30:52;;;;;;;;;;;;;;;-0.78;100.00;101329.53;5559834;32;34491;-83
2022/01/26 22:33:56;;;;;;;;;;;;;;;-0.81;100.00;101325.28;5561012;32;34435;-84
2022/01/26 22:36:58;;;;;;;;;;;;;;;-0.82;100.00;101322.69;5560788;32;34345;-83
2022/01/26 22:40:03;;;;;;;;;;;;;;;-0.64;100.00;101322.19;5561296;32;34243;-84
2022/01/26 22:43:12;;;;;;;;;;;;;;;-0.53;100.00;101318.44;5560567;32;34043;-84
2022/01/26 22:46:14;;;;;;;;;;;;;;;-0.50;100.00;101316.59;5560724;32;35144;-83
2022/01/26 22:49:17;;;;;;;;;;;;;;;-0.63;100.00;101313.50;5559370;32;34694;-84